createdAt,value
2018-07-31T00:02:01.428Z,51.02
2018-07-31T00:04:29.938Z,50.42
2018-07-31T00:06:58.166Z,50.09
2018-07-31T00:09:26.390Z,50.53
2018-07-31T00:11:54.645Z,50.42
2018-07-31T00:14:23.106Z,50.48
2018-07-31T00:16:51.420Z,50.40
2018-07-31T00:19:19.660Z,50.48
2018-07-31T00:21:48.287Z,50.46
2018-07-31T00:24:16.502Z,51.75
2018-07-31T00:26:44.692Z,52.12
2018-07-31T00:29:13.139Z,52.28
2018-07-31T00:31:42.098Z,52.68
2018-07-31T00:34:10.277Z,52.92
2018-07-31T00:36:38.518Z,52.88
2018-07-31T00:39:08.448Z,52.61
2018-07-31T00:41:36.810Z,52.27
2018-07-31T00:44:05.327Z,51.99
2018-07-31T00:46:34.263Z,52.10
2018-07-31T00:49:02.848Z,52.73
2018-07-31T00:51:31.078Z,53.24
2018-07-31T00:54:00.284Z,53.29
2018-07-31T00:56:28.896Z,52.97
2018-07-31T00:58:57.449Z,53.56
2018-07-31T01:01:26.075Z,54.09
2018-07-31T01:03:55.217Z,53.33
2018-07-31T01:06:28.087Z,53.24
2018-07-31T01:08:56.684Z,53.83
2018-07-31T01:11:25.967Z,53.52
2018-07-31T01:16:22.126Z,54.01
2018-07-31T01:18:50.400Z,53.48
2018-07-31T01:21:18.633Z,53.22
2018-07-31T01:23:47.557Z,53.51
2018-07-31T01:26:15.764Z,53.82
2018-07-31T01:28:44.052Z,54.29
2018-07-31T01:31:12.315Z,54.71
2018-07-31T01:33:40.601Z,54.30
2018-07-31T01:36:08.880Z,54.35
2018-07-31T01:38:37.114Z,54.86
2018-07-31T01:41:06.204Z,55.22
2018-07-31T01:43:35.097Z,55.60
2018-07-31T01:46:03.370Z,55.76
2018-07-31T01:48:31.683Z,56.08
2018-07-31T01:51:00.547Z,56.10
2018-07-31T01:53:28.814Z,56.27
2018-07-31T01:55:57.594Z,56.28
2018-07-31T01:58:26.137Z,56.45
2018-07-31T02:00:54.606Z,56.75
2018-07-31T02:03:24.178Z,56.99
2018-07-31T02:05:52.496Z,56.89
2018-07-31T02:08:21.254Z,57.10
2018-07-31T02:10:50.172Z,57.07
2018-07-31T02:13:19.369Z,56.91
2018-07-31T02:15:47.919Z,57.29
2018-07-31T02:18:16.364Z,56.99
2018-07-31T02:20:44.992Z,57.78
2018-07-31T02:23:13.201Z,57.86
2018-07-31T02:25:42.031Z,58.52
2018-07-31T02:28:10.643Z,59.04
2018-07-31T02:30:38.907Z,59.10
2018-07-31T02:33:07.125Z,59.11
2018-07-31T02:35:35.412Z,59.31
2018-07-31T02:38:04.040Z,59.17
2018-07-31T02:40:32.302Z,59.17
2018-07-31T02:43:00.740Z,59.41
2018-07-31T02:45:30.271Z,59.97
2018-07-31T02:47:59.288Z,60.25
2018-07-31T02:50:29.436Z,60.95
2018-07-31T02:52:57.648Z,61.37
2018-07-31T02:55:26.312Z,61.59
2018-07-31T02:57:54.584Z,61.64
2018-07-31T03:00:22.814Z,61.56
2018-07-31T03:02:51.453Z,61.02
2018-07-31T03:05:19.774Z,60.92
2018-07-31T03:07:48.357Z,60.57
2018-07-31T03:10:16.603Z,60.68
2018-07-31T03:12:44.856Z,60.23
2018-07-31T03:15:13.597Z,60.13
2018-07-31T03:17:42.453Z,60.14
2018-07-31T03:20:11.377Z,59.58
2018-07-31T03:22:39.592Z,59.36
2018-07-31T03:25:09.278Z,59.34
2018-07-31T03:27:37.508Z,59.23
2018-07-31T03:30:06.476Z,59.16
2018-07-31T03:32:34.971Z,58.98
2018-07-31T03:35:03.214Z,59.19
2018-07-31T03:37:31.698Z,59.53
2018-07-31T03:39:59.912Z,59.77
2018-07-31T03:42:28.469Z,59.79
2018-07-31T03:44:56.645Z,60.13
2018-07-31T03:47:25.158Z,60.45
2018-07-31T03:49:53.635Z,60.71
2018-07-31T03:52:21.850Z,60.83
2018-07-31T03:54:50.144Z,60.82
2018-07-31T03:57:18.349Z,60.34
2018-07-31T03:59:47.070Z,60.49
2018-07-31T04:02:15.316Z,60.74
2018-07-31T04:04:44.123Z,60.75
2018-07-31T04:07:12.340Z,60.34
2018-07-31T04:09:40.521Z,60.53
2018-07-31T04:12:09.000Z,60.49
2018-07-31T04:14:37.579Z,60.10
2018-07-31T04:17:05.791Z,59.71
2018-07-31T04:19:34.220Z,59.54
2018-07-31T04:22:02.743Z,59.73
2018-07-31T04:24:31.257Z,59.93
2018-07-31T04:26:59.736Z,59.51
2018-07-31T04:29:27.924Z,59.48
2018-07-31T04:31:56.461Z,58.99
2018-07-31T04:34:24.730Z,59.19
2018-07-31T04:36:53.576Z,59.54
2018-07-31T04:39:21.766Z,59.30
2018-07-31T04:41:50.084Z,59.14
2018-07-31T04:44:18.907Z,58.26
2018-07-31T04:46:47.084Z,57.42
2018-07-31T04:49:15.638Z,57.12
2018-07-31T04:51:44.124Z,57.21
2018-07-31T04:54:12.632Z,56.48
2018-07-31T04:56:40.968Z,57.16
2018-07-31T04:59:09.185Z,56.72
2018-07-31T05:01:37.389Z,55.90
2018-07-31T05:04:05.588Z,55.30
2018-07-31T05:06:33.827Z,55.54
2018-07-31T05:09:02.480Z,55.67
2018-07-31T05:11:30.651Z,55.64
2018-07-31T05:13:58.877Z,57.02
2018-07-31T05:16:27.029Z,56.97
2018-07-31T05:18:55.257Z,56.74
2018-07-31T05:21:23.809Z,56.47
2018-07-31T05:23:52.564Z,57.00
2018-07-31T05:26:20.845Z,57.05
2018-07-31T05:28:49.393Z,55.94
2018-07-31T05:31:17.943Z,55.16
2018-07-31T05:33:46.177Z,54.94
2018-07-31T05:36:14.405Z,53.75
2018-07-31T05:38:42.599Z,53.29
2018-07-31T05:41:10.876Z,52.98
2018-07-31T05:43:39.123Z,51.83
2018-07-31T05:46:07.385Z,51.50
2018-07-31T05:48:35.566Z,52.01
2018-07-31T05:51:04.033Z,52.02
2018-07-31T05:53:32.567Z,51.51
2018-07-31T05:56:01.012Z,50.59
2018-07-31T05:58:29.232Z,50.37
2018-07-31T06:00:57.492Z,50.73
2018-07-31T06:03:25.791Z,50.61
2018-07-31T06:05:54.902Z,50.78
2018-07-31T06:08:23.264Z,51.13
2018-07-31T06:10:51.494Z,51.78
2018-07-31T06:13:19.672Z,51.48
2018-07-31T06:15:47.916Z,51.04
2018-07-31T06:18:16.368Z,51.85
2018-07-31T06:20:44.581Z,51.96
2018-07-31T06:23:13.557Z,51.37
2018-07-31T06:25:42.130Z,51.46
2018-07-31T06:28:10.376Z,50.94
2018-07-31T06:30:38.900Z,50.11
2018-07-31T06:33:08.076Z,49.62
2018-07-31T06:35:36.558Z,49.49
2018-07-31T06:38:04.829Z,49.39
2018-07-31T06:40:34.178Z,49.18
2018-07-31T06:43:04.285Z,48.11
2018-07-31T06:45:32.584Z,48.04
2018-07-31T06:48:01.562Z,48.04
2018-07-31T06:50:29.820Z,48.02
2018-07-31T06:52:58.042Z,47.65
2018-07-31T06:55:26.335Z,48.04
2018-07-31T06:57:54.540Z,47.60
2018-07-31T07:00:22.770Z,47.22
2018-07-31T07:02:51.590Z,47.43
2018-07-31T07:05:20.115Z,47.21
2018-07-31T07:07:48.277Z,47.58
2018-07-31T07:10:16.790Z,47.70
2018-07-31T07:12:45.059Z,47.09
2018-07-31T07:15:13.224Z,46.28
2018-07-31T07:17:41.704Z,46.14
2018-07-31T07:20:10.461Z,46.37
2018-07-31T07:22:38.805Z,45.79
2018-07-31T07:25:07.203Z,44.84
2018-07-31T07:27:35.711Z,44.48
2018-07-31T07:30:04.813Z,43.90
2018-07-31T07:32:33.071Z,44.13
2018-07-31T07:35:01.281Z,44.53
2018-07-31T07:37:30.251Z,44.67
2018-07-31T07:39:58.674Z,43.96
2018-07-31T07:42:27.346Z,43.66
2018-07-31T07:44:55.908Z,43.16
2018-07-31T07:47:24.911Z,42.74
2018-07-31T07:49:53.547Z,42.77
2018-07-31T07:52:22.150Z,41.91
2018-07-31T07:54:50.474Z,41.70
2018-07-31T07:57:19.423Z,41.87
2018-07-31T07:59:47.722Z,41.37
2018-07-31T08:02:16.597Z,41.99
2018-07-31T08:04:45.581Z,41.88
2018-07-31T08:07:16.235Z,41.20
2018-07-31T08:09:45.298Z,40.61
2018-07-31T08:12:14.070Z,41.01
2018-07-31T08:14:42.365Z,40.95
2018-07-31T08:17:11.548Z,41.34
2018-07-31T08:19:39.757Z,40.93
2018-07-31T08:22:08.737Z,40.93
2018-07-31T08:24:37.456Z,40.09
2018-07-31T08:27:06.280Z,39.91
2018-07-31T08:29:35.117Z,40.31
2018-07-31T08:32:03.624Z,39.72
2018-07-31T08:34:31.806Z,40.72
2018-07-31T08:37:00.264Z,39.41
2018-07-31T08:39:29.135Z,39.24
2018-07-31T08:41:57.620Z,38.46
2018-07-31T08:44:26.085Z,38.43
2018-07-31T08:46:54.925Z,38.64
2018-07-31T08:49:23.776Z,37.91
2018-07-31T08:51:51.985Z,38.04
2018-07-31T08:54:20.571Z,37.77
2018-07-31T08:56:49.850Z,36.75
2018-07-31T08:59:18.778Z,37.25
2018-07-31T09:01:47.807Z,37.53
2018-07-31T09:04:16.331Z,37.41
2018-07-31T09:06:44.929Z,36.63
2018-07-31T09:09:13.415Z,36.02
2018-07-31T09:11:42.128Z,36.18
2018-07-31T09:14:10.395Z,36.50
2018-07-31T09:16:39.203Z,35.51
2018-07-31T09:19:07.671Z,35.31
2018-07-31T09:21:36.753Z,34.65
2018-07-31T09:24:05.486Z,34.74
2018-07-31T09:26:33.985Z,34.21
2018-07-31T09:29:02.953Z,32.76
2018-07-31T09:31:31.342Z,32.93
2018-07-31T09:33:59.691Z,30.55
2018-07-31T09:36:28.236Z,31.07
2018-07-31T09:38:56.505Z,31.03
2018-07-31T09:41:24.759Z,31.37
2018-07-31T09:43:53.199Z,31.51
2018-07-31T09:46:21.724Z,30.86
2018-07-31T09:48:50.887Z,29.84
2018-07-31T09:51:19.358Z,30.22
2018-07-31T09:53:48.060Z,30.67
2018-07-31T09:56:17.965Z,29.04
2018-07-31T09:58:46.190Z,27.62
2018-07-31T10:01:19.048Z,27.66
2018-07-31T10:03:49.321Z,27.08
2018-07-31T10:06:18.363Z,27.08
2018-07-31T10:08:46.614Z,26.53
2018-07-31T10:11:14.993Z,26.70
2018-07-31T10:13:43.457Z,26.37
2018-07-31T10:16:11.939Z,26.59
2018-07-31T10:18:40.933Z,25.99
2018-07-31T10:21:09.559Z,26.25
2018-07-31T10:23:37.801Z,25.25
2018-07-31T10:26:06.034Z,23.93
2018-07-31T10:28:35.131Z,24.87
2018-07-31T10:31:03.333Z,23.87
2018-07-31T10:33:31.823Z,24.60
2018-07-31T10:36:00.399Z,25.96
2018-07-31T10:38:28.754Z,26.03
2018-07-31T10:40:57.003Z,25.52
2018-07-31T10:43:25.968Z,24.44
2018-07-31T10:45:54.571Z,24.26
2018-07-31T10:48:23.408Z,24.47
2018-07-31T10:50:52.198Z,24.23
2018-07-31T10:53:20.772Z,24.26
2018-07-31T10:55:48.954Z,24.41
2018-07-31T10:58:17.300Z,23.70
2018-07-31T11:00:45.879Z,23.98
2018-07-31T11:03:14.815Z,24.55
2018-07-31T11:05:43.339Z,23.57
2018-07-31T11:08:11.645Z,23.46
2018-07-31T11:10:40.597Z,23.63
2018-07-31T11:13:09.102Z,23.38
2018-07-31T11:15:37.384Z,23.52
2018-07-31T11:18:06.129Z,23.18
2018-07-31T11:20:34.777Z,23.18
2018-07-31T11:23:03.037Z,22.71
2018-07-31T11:25:31.249Z,22.69
2018-07-31T11:27:59.905Z,22.80
2018-07-31T11:30:28.676Z,22.14
2018-07-31T11:32:57.095Z,22.18
2018-07-31T11:35:25.593Z,22.32
2018-07-31T11:37:53.822Z,22.40
2018-07-31T11:40:22.333Z,21.72
2018-07-31T11:42:51.042Z,21.34
2018-07-31T11:45:19.357Z,22.36
2018-07-31T11:47:49.026Z,22.08
2018-07-31T11:50:17.285Z,21.36
2018-07-31T11:52:46.145Z,22.10
2018-07-31T11:55:14.420Z,21.58
2018-07-31T11:57:42.827Z,21.30
2018-07-31T12:00:13.545Z,20.72
2018-07-31T12:02:42.143Z,20.67
2018-07-31T12:05:10.732Z,20.23
2018-07-31T12:07:39.039Z,20.64
2018-07-31T12:10:07.558Z,20.03
2018-07-31T12:12:36.092Z,20.43
2018-07-31T12:15:04.588Z,21.78
2018-07-31T12:17:32.772Z,21.87
2018-07-31T12:20:00.987Z,21.51
2018-07-31T12:22:29.272Z,20.26
2018-07-31T12:24:57.928Z,19.91
2018-07-31T12:27:26.108Z,19.34
2018-07-31T12:29:54.356Z,20.04
2018-07-31T12:32:23.657Z,20.26
2018-07-31T12:34:52.122Z,20.25
2018-07-31T12:37:20.315Z,21.14
2018-07-31T12:39:48.866Z,20.81
2018-07-31T12:42:17.066Z,21.01
2018-07-31T12:44:45.800Z,21.35
2018-07-31T12:47:14.781Z,21.89
2018-07-31T12:49:43.244Z,22.62
2018-07-31T12:52:11.417Z,23.04
2018-07-31T12:54:39.629Z,22.62
2018-07-31T12:57:08.226Z,23.65
2018-07-31T12:59:37.257Z,23.42
2018-07-31T13:02:06.815Z,24.38
2018-07-31T13:04:35.156Z,23.24
2018-07-31T13:07:03.388Z,22.67
2018-07-31T13:09:31.858Z,22.23
2018-07-31T13:12:00.140Z,21.69
2018-07-31T13:14:28.613Z,21.52
2018-07-31T13:16:57.204Z,20.77
2018-07-31T13:19:25.437Z,20.94
2018-07-31T13:21:54.518Z,20.46
2018-07-31T13:24:24.333Z,19.56
2018-07-31T13:26:53.441Z,19.35
2018-07-31T13:29:21.588Z,19.12
2018-07-31T13:31:49.800Z,18.19
2018-07-31T13:34:18.254Z,17.17
2018-07-31T13:36:47.100Z,17.09
2018-07-31T13:39:15.293Z,16.74
2018-07-31T13:41:43.524Z,16.72
2018-07-31T13:44:12.103Z,15.89
2018-07-31T13:46:40.257Z,15.29
2018-07-31T13:49:08.553Z,15.57
2018-07-31T13:51:36.704Z,14.50
2018-07-31T13:54:05.188Z,14.64
2018-07-31T13:56:33.893Z,15.11
2018-07-31T13:59:02.274Z,15.22
2018-07-31T14:01:30.707Z,14.48
2018-07-31T14:03:58.945Z,14.67
2018-07-31T14:06:27.125Z,14.96
2018-07-31T14:08:55.305Z,14.97
2018-07-31T14:11:24.611Z,14.88
2018-07-31T14:13:53.128Z,14.39
2018-07-31T14:16:21.279Z,12.96
2018-07-31T14:18:49.883Z,13.13
2018-07-31T14:21:18.556Z,12.38
2018-07-31T14:23:47.061Z,12.46
2018-07-31T14:26:15.308Z,12.69
2018-07-31T14:28:43.558Z,12.34
2018-07-31T14:31:12.615Z,13.07
2018-07-31T14:33:41.192Z,13.00
2018-07-31T14:36:09.664Z,12.37
2018-07-31T14:38:37.966Z,12.68
2018-07-31T14:41:06.201Z,12.58
2018-07-31T14:43:34.777Z,12.85
2018-07-31T14:46:03.779Z,12.61
2018-07-31T14:48:32.283Z,13.75
2018-07-31T14:51:00.757Z,12.67
2018-07-31T14:53:29.278Z,12.42
2018-07-31T14:55:57.635Z,11.14
2018-07-31T14:58:26.174Z,12.24
2018-07-31T15:00:55.801Z,12.85
2018-07-31T15:03:24.028Z,12.75
2018-07-31T15:05:53.142Z,11.53
2018-07-31T15:08:21.771Z,12.26
2018-07-31T15:10:50.373Z,11.92
2018-07-31T15:13:19.005Z,11.56
2018-07-31T15:15:47.856Z,11.39
2018-07-31T15:18:16.888Z,10.60
2018-07-31T15:20:45.997Z,10.90
2018-07-31T15:23:14.822Z,12.66
2018-07-31T15:25:43.840Z,12.58
2018-07-31T15:28:12.404Z,11.99
2018-07-31T15:30:40.580Z,11.85
2018-07-31T15:33:09.137Z,11.05
2018-07-31T15:35:37.802Z,10.78
2018-07-31T15:38:06.050Z,10.93
2018-07-31T15:40:34.346Z,10.48
2018-07-31T15:43:02.981Z,10.56
2018-07-31T15:45:31.127Z,11.14
2018-07-31T15:47:59.324Z,11.68
2018-07-31T15:50:27.965Z,11.65
2018-07-31T15:52:56.385Z,11.51
2018-07-31T15:55:24.621Z,11.64
2018-07-31T15:57:53.267Z,12.13
2018-07-31T16:00:21.855Z,11.69
2018-07-31T16:02:50.023Z,11.36
2018-07-31T16:05:18.329Z,11.54
2018-07-31T16:07:46.616Z,12.68
2018-07-31T16:10:14.876Z,11.46
2018-07-31T16:12:43.096Z,11.85
2018-07-31T16:15:11.989Z,12.03
2018-07-31T16:17:40.187Z,11.32
2018-07-31T16:20:08.689Z,11.94
2018-07-31T16:22:36.888Z,11.32
2018-07-31T16:25:05.252Z,12.09
2018-07-31T16:27:34.155Z,12.11
2018-07-31T16:30:02.637Z,12.00
2018-07-31T16:32:30.864Z,12.25
2018-07-31T16:34:59.447Z,12.79
2018-07-31T16:37:27.935Z,13.13
2018-07-31T16:39:56.164Z,13.81
2018-07-31T16:42:25.300Z,14.39
2018-07-31T16:44:54.738Z,13.38
2018-07-31T16:47:23.352Z,14.21
2018-07-31T16:49:51.848Z,13.41
2018-07-31T16:52:20.386Z,14.58
2018-07-31T16:54:48.997Z,14.01
2018-07-31T16:57:17.229Z,14.74
2018-07-31T16:59:45.512Z,14.95
2018-07-31T17:02:14.382Z,15.50
2018-07-31T17:04:42.590Z,16.52
2018-07-31T17:07:10.825Z,16.92
2018-07-31T17:09:39.690Z,16.70
2018-07-31T17:12:09.553Z,17.13
2018-07-31T17:14:37.766Z,17.76
2018-07-31T17:17:06.520Z,18.71
2018-07-31T17:19:34.721Z,19.79
2018-07-31T17:22:03.281Z,21.81
2018-07-31T17:24:31.660Z,22.94
2018-07-31T17:27:00.034Z,24.95
2018-07-31T17:29:28.695Z,24.95
2018-07-31T17:31:57.416Z,25.42
2018-07-31T17:34:26.005Z,25.21
2018-07-31T17:36:54.580Z,25.75
2018-07-31T17:39:23.067Z,26.32
2018-07-31T17:41:51.717Z,26.92
2018-07-31T17:44:20.206Z,26.40
2018-07-31T17:46:48.412Z,24.72
2018-07-31T17:49:17.196Z,23.77
2018-07-31T17:51:46.151Z,22.48
2018-07-31T17:54:14.362Z,22.59
2018-07-31T17:56:42.592Z,23.93
2018-07-31T17:59:11.019Z,25.75
2018-07-31T18:01:39.346Z,26.70
2018-07-31T18:04:07.917Z,27.31
2018-07-31T18:06:36.256Z,28.00
2018-07-31T18:09:07.913Z,28.00
2018-07-31T18:11:38.836Z,28.58
2018-07-31T18:14:08.005Z,29.51
2018-07-31T18:16:36.942Z,29.52
2018-07-31T18:19:05.396Z,29.92
2018-07-31T18:21:33.875Z,30.01
2018-07-31T18:24:02.112Z,29.66
2018-07-31T18:26:30.488Z,29.64
2018-07-31T18:28:58.597Z,29.94
2018-07-31T18:31:27.378Z,29.91
2018-07-31T18:33:55.966Z,29.89
2018-07-31T18:36:24.470Z,30.28
2018-07-31T18:38:52.710Z,30.41
2018-07-31T18:41:22.008Z,30.07
2018-07-31T18:43:50.679Z,30.42
2018-07-31T18:46:19.167Z,30.68
2018-07-31T18:48:48.053Z,30.67
2018-07-31T18:51:17.099Z,31.09
2018-07-31T18:53:46.242Z,31.12
2018-07-31T18:56:14.459Z,31.28
2018-07-31T18:58:43.123Z,31.30
2018-07-31T19:01:11.706Z,31.66
2018-07-31T19:03:40.384Z,31.80
2018-07-31T19:06:08.597Z,31.94
2018-07-31T19:08:36.897Z,32.27
2018-07-31T19:11:05.143Z,32.03
2018-07-31T19:13:34.344Z,31.92
2018-07-31T19:16:02.949Z,31.71
2018-07-31T19:18:31.488Z,32.35
2018-07-31T19:21:00.374Z,32.74
2018-07-31T19:23:28.676Z,32.76
2018-07-31T19:25:56.968Z,32.65
2018-07-31T19:28:25.225Z,32.90
2018-07-31T19:30:55.090Z,32.43
2018-07-31T19:33:23.618Z,33.29
2018-07-31T19:35:52.829Z,33.20
2018-07-31T19:38:21.277Z,33.19
2018-07-31T19:40:49.485Z,33.15
2018-07-31T19:43:17.933Z,33.49
2018-07-31T19:45:46.812Z,33.08
2018-07-31T19:48:15.112Z,33.47
2018-07-31T19:50:43.948Z,34.34
2018-07-31T19:53:12.761Z,34.57
2018-07-31T19:55:41.638Z,34.66
2018-07-31T19:58:10.532Z,35.43
2018-07-31T20:00:38.845Z,35.63
2018-07-31T20:03:07.540Z,35.80
2018-07-31T20:05:36.412Z,36.27
2018-07-31T20:08:05.901Z,37.34
2018-07-31T20:10:36.093Z,37.62
2018-07-31T20:13:05.245Z,37.72
2018-07-31T20:15:33.781Z,37.44
2018-07-31T20:18:02.597Z,38.11
2018-07-31T20:20:30.937Z,38.50
2018-07-31T20:22:59.864Z,38.02
2018-07-31T20:25:28.136Z,38.38
2018-07-31T20:27:56.425Z,38.59
2018-07-31T20:30:25.669Z,38.87
2018-07-31T20:32:54.494Z,39.08
2018-07-31T20:35:23.053Z,39.18
2018-07-31T20:37:51.443Z,39.63
2018-07-31T20:40:20.744Z,39.62
2018-07-31T20:42:49.915Z,39.73
2018-07-31T20:45:18.188Z,39.69
2018-07-31T20:47:46.567Z,39.74
2018-07-31T20:50:15.148Z,40.15
2018-07-31T20:52:44.740Z,40.02
2018-07-31T20:55:13.111Z,39.51
2018-07-31T20:57:41.361Z,39.80
2018-07-31T21:00:09.658Z,39.95
2018-07-31T21:02:38.565Z,40.51
2018-07-31T21:05:07.213Z,40.47
2018-07-31T21:07:35.933Z,40.54
2018-07-31T21:10:05.002Z,40.53
2018-07-31T21:12:34.048Z,40.65
2018-07-31T21:15:03.067Z,40.42
2018-07-31T21:17:34.259Z,40.49
2018-07-31T21:20:02.747Z,40.10
2018-07-31T21:22:31.968Z,40.04
2018-07-31T21:25:00.781Z,39.87
2018-07-31T21:27:29.496Z,40.72
2018-07-31T21:29:57.812Z,40.82
2018-07-31T21:32:26.445Z,40.70
2018-07-31T21:34:55.329Z,40.43
2018-07-31T21:37:23.855Z,40.20
2018-07-31T21:39:52.483Z,40.24
2018-07-31T21:42:20.650Z,40.47
2018-07-31T21:44:49.878Z,40.18
2018-07-31T21:47:21.492Z,40.52
2018-07-31T21:49:50.638Z,40.64
2018-07-31T21:52:19.108Z,41.48
2018-07-31T21:54:47.723Z,42.17
2018-07-31T21:57:15.916Z,40.97
2018-07-31T21:59:44.592Z,40.50
2018-07-31T22:02:14.034Z,40.24
2018-07-31T22:04:42.640Z,40.46
2018-07-31T22:07:10.988Z,40.12
2018-07-31T22:09:44.433Z,40.56
2018-07-31T22:12:13.342Z,40.68
2018-07-31T22:14:42.184Z,40.55
2018-07-31T22:17:11.710Z,40.82
2018-07-31T22:19:40.814Z,40.91
2018-07-31T22:22:09.322Z,40.97
2018-07-31T22:24:38.519Z,40.75
2018-07-31T22:27:06.661Z,40.19
2018-07-31T22:29:35.122Z,40.09
2018-07-31T22:32:03.654Z,39.98
2018-07-31T22:34:32.240Z,39.83
2018-07-31T22:37:00.964Z,39.93
2018-07-31T22:39:29.310Z,39.86
2018-07-31T22:41:57.535Z,39.98
2018-07-31T22:44:26.440Z,40.46
2018-07-31T22:46:54.922Z,40.75
2018-07-31T22:49:23.755Z,41.28
2018-07-31T22:51:52.012Z,41.40
2018-07-31T22:54:20.566Z,42.80
2018-07-31T22:56:48.712Z,44.42
2018-07-31T22:59:17.782Z,43.94
2018-07-31T23:01:46.596Z,43.91
2018-07-31T23:04:14.797Z,44.48
2018-07-31T23:06:46.363Z,44.92
2018-07-31T23:09:14.586Z,45.82
2018-07-31T23:11:43.630Z,46.74
2018-07-31T23:14:11.939Z,47.77
2018-07-31T23:16:40.764Z,47.77
2018-07-31T23:19:08.970Z,47.63
2018-07-31T23:21:37.579Z,46.24
2018-07-31T23:24:06.028Z,45.51
2018-07-31T23:26:34.828Z,43.93
2018-07-31T23:29:04.068Z,43.44
2018-07-31T23:31:33.482Z,43.55
2018-07-31T23:34:02.018Z,43.04
2018-07-31T23:36:30.252Z,43.30
2018-07-31T23:38:58.852Z,42.64
2018-07-31T23:41:27.138Z,42.22
2018-07-31T23:43:55.392Z,42.62
2018-07-31T23:46:23.681Z,43.15
2018-07-31T23:48:52.341Z,42.90
2018-07-31T23:51:20.665Z,42.94
2018-07-31T23:53:48.918Z,43.11
2018-07-31T23:56:18.115Z,42.91
2018-07-31T23:58:46.879Z,43.55
